createdAt,value
2023-05-01T00:00:24.893Z,83.64
2023-05-01T00:02:52.325Z,84.20
2023-05-01T00:05:18.879Z,83.91
2023-05-01T00:07:45.503Z,84.45
2023-05-01T00:10:12.298Z,84.66
2023-05-01T00:12:38.826Z,84.99
2023-05-01T00:15:06.848Z,85.54
2023-05-01T00:17:33.543Z,85.41
2023-05-01T00:20:00.102Z,86.23
2023-05-01T00:22:45.063Z,85.67
2023-05-01T00:25:37.358Z,86.79
2023-05-01T00:28:03.988Z,86.98
2023-05-01T00:30:30.396Z,87.29
2023-05-01T00:32:57.100Z,87.07
2023-05-01T00:35:23.542Z,87.65
2023-05-01T00:37:49.917Z,88.36
2023-05-01T00:40:16.460Z,87.72
2023-05-01T00:42:42.933Z,88.40
2023-05-01T00:45:10.010Z,88.70
2023-05-01T00:47:36.694Z,88.10
2023-05-01T00:50:03.992Z,89.21
2023-05-01T00:52:30.638Z,88.16
2023-05-01T00:54:57.869Z,88.57
2023-05-01T00:57:25.566Z,88.58
2023-05-01T00:59:52.023Z,89.32
2023-05-01T01:02:18.368Z,89.06
2023-05-01T01:04:46.877Z,88.99
2023-05-01T01:07:34.877Z,89.66
2023-05-01T01:10:05.802Z,89.94
2023-05-01T01:12:39.585Z,89.60
2023-05-01T01:15:24.081Z,90.19
2023-05-01T01:18:18.002Z,90.34
2023-05-01T01:20:55.366Z,90.32
2023-05-01T01:23:40.365Z,89.69
2023-05-01T01:26:32.074Z,89.80
2023-05-01T01:29:21.836Z,89.95
2023-05-01T01:32:26.998Z,89.98
2023-05-01T01:35:02.435Z,90.39
2023-05-01T01:37:43.176Z,90.99
2023-05-01T01:40:22.677Z,90.98
2023-05-01T01:42:59.536Z,91.42
2023-05-01T01:45:33.247Z,91.89
2023-05-01T01:48:01.103Z,91.69
2023-05-01T01:50:28.479Z,91.55
2023-05-01T01:52:58.749Z,91.86
2023-05-01T01:55:27.748Z,91.51
2023-05-01T01:57:54.442Z,92.25
2023-05-01T02:00:22.008Z,91.63
2023-05-01T02:02:49.422Z,92.35
2023-05-01T02:05:18.315Z,92.88
2023-05-01T02:07:47.288Z,92.19
2023-05-01T02:10:14.935Z,92.80
2023-05-01T02:12:44.917Z,93.00
2023-05-01T02:15:11.661Z,93.73
2023-05-01T02:17:39.171Z,93.79
2023-05-01T02:20:07.965Z,93.40
2023-05-01T02:22:34.634Z,93.43
2023-05-01T02:25:01.952Z,93.80
2023-05-01T02:27:31.687Z,94.53
2023-05-01T02:29:58.801Z,93.95
2023-05-01T02:32:26.363Z,93.55
2023-05-01T02:34:52.990Z,93.50
2023-05-01T02:37:20.031Z,94.09
2023-05-01T02:39:46.610Z,93.46
2023-05-01T02:42:15.917Z,94.20
2023-05-01T02:44:49.142Z,94.61
2023-05-01T02:47:18.428Z,94.38
2023-05-01T02:49:46.966Z,94.17
2023-05-01T02:52:17.781Z,94.59
2023-05-01T02:54:45.437Z,94.14
2023-05-01T02:57:12.859Z,94.51
2023-05-01T02:59:42.505Z,94.88
2023-05-01T03:02:09.162Z,95.28
2023-05-01T03:04:35.782Z,95.40
2023-05-01T03:07:02.225Z,95.84
2023-05-01T03:09:28.786Z,95.16
2023-05-01T03:11:55.484Z,95.66
2023-05-01T03:14:22.267Z,94.90
2023-05-01T03:16:49.019Z,95.89
2023-05-01T03:19:16.667Z,96.16
2023-05-01T03:21:43.052Z,95.82
2023-05-01T03:24:10.153Z,96.16
2023-05-01T03:26:36.771Z,96.55
2023-05-01T03:29:03.880Z,96.43
2023-05-01T03:31:30.273Z,95.59
2023-05-01T03:33:56.687Z,96.42
2023-05-01T03:36:23.597Z,96.25
2023-05-01T03:38:50.141Z,96.23
2023-05-01T03:41:16.708Z,96.37
2023-05-01T03:43:43.188Z,96.24
2023-05-01T03:46:10.714Z,96.07
2023-05-01T03:48:52.982Z,95.72
2023-05-01T03:51:19.540Z,97.07
2023-05-01T03:53:46.017Z,97.68
2023-05-01T03:56:12.482Z,97.48
2023-05-01T03:58:39.105Z,97.29
2023-05-01T04:01:05.998Z,97.99
2023-05-01T04:03:32.588Z,97.83
2023-05-01T04:05:59.527Z,97.72
2023-05-01T04:08:26.019Z,97.67
2023-05-01T04:10:52.902Z,97.86
2023-05-01T04:13:19.542Z,97.75
2023-05-01T04:15:48.985Z,97.07
2023-05-01T04:18:15.903Z,97.33
2023-05-01T04:20:42.342Z,96.07
2023-05-01T04:23:09.574Z,95.59
2023-05-01T04:25:36.809Z,95.02
2023-05-01T04:28:03.357Z,93.54
2023-05-01T04:30:31.168Z,93.39
2023-05-01T04:33:00.493Z,92.43
2023-05-01T04:35:28.071Z,90.99
2023-05-01T04:37:54.849Z,91.66
2023-05-01T04:40:21.319Z,89.07
2023-05-01T04:42:48.277Z,89.17
2023-05-01T04:45:14.833Z,88.80
2023-05-01T04:47:41.481Z,89.28
2023-05-01T04:50:08.344Z,87.70
2023-05-01T04:52:35.954Z,87.81
2023-05-01T04:55:03.707Z,87.75
2023-05-01T04:57:30.161Z,85.84
2023-05-01T04:59:56.892Z,85.53
2023-05-01T05:02:24.004Z,85.70
2023-05-01T05:04:51.040Z,83.69
2023-05-01T05:07:17.841Z,83.66
2023-05-01T05:09:44.301Z,82.81
2023-05-01T05:12:10.954Z,81.92
2023-05-01T05:14:37.463Z,80.34
2023-05-01T05:17:03.959Z,79.53
2023-05-01T05:19:30.389Z,77.94
2023-05-01T05:21:57.946Z,77.15
2023-05-01T05:24:24.428Z,77.26
2023-05-01T05:26:51.185Z,78.01
2023-05-01T05:29:17.765Z,76.94
2023-05-01T05:31:44.189Z,74.56
2023-05-01T05:34:11.376Z,73.04
2023-05-01T05:36:37.889Z,72.69
2023-05-01T05:39:04.359Z,72.61
2023-05-01T05:41:31.104Z,69.33
2023-05-01T05:43:57.612Z,67.11
2023-05-01T05:46:24.647Z,64.37
2023-05-01T05:48:51.747Z,61.37
2023-05-01T05:51:19.344Z,62.67
2023-05-01T05:53:45.881Z,61.63
2023-05-01T05:56:12.814Z,59.25
2023-05-01T05:58:39.322Z,58.97
2023-05-01T06:01:07.079Z,56.96
2023-05-01T06:03:34.281Z,56.17
2023-05-01T06:06:01.306Z,54.99
2023-05-01T06:08:27.869Z,54.94
2023-05-01T06:10:54.485Z,53.58
2023-05-01T06:13:20.945Z,51.97
2023-05-01T06:15:47.531Z,49.84
2023-05-01T06:18:14.286Z,48.37
2023-05-01T06:20:41.033Z,46.95
2023-05-01T06:23:09.471Z,44.04
2023-05-01T06:25:37.211Z,45.36
2023-05-01T06:28:04.163Z,43.81
2023-05-01T06:30:30.892Z,43.49
2023-05-01T06:32:57.427Z,41.48
2023-05-01T06:35:24.467Z,43.55
2023-05-01T06:37:50.975Z,44.06
2023-05-01T06:40:17.528Z,44.23
2023-05-01T06:42:44.043Z,41.03
2023-05-01T06:45:10.656Z,42.94
2023-05-01T06:47:37.299Z,39.03
2023-05-01T06:50:05.673Z,37.25
2023-05-01T06:52:32.477Z,39.06
2023-05-01T06:54:58.906Z,36.96
2023-05-01T06:57:25.874Z,37.42
2023-05-01T06:59:52.450Z,35.28
2023-05-01T07:02:18.963Z,33.60
2023-05-01T07:04:45.808Z,32.71
2023-05-01T07:07:12.490Z,35.36
2023-05-01T07:09:38.935Z,34.76
2023-05-01T07:12:06.297Z,34.92
2023-05-01T07:14:34.773Z,34.86
2023-05-01T07:17:02.213Z,34.32
2023-05-01T07:19:28.884Z,35.34
2023-05-01T07:21:55.422Z,36.60
2023-05-01T07:24:21.893Z,38.06
2023-05-01T07:26:48.385Z,37.40
2023-05-01T07:29:16.399Z,36.94
2023-05-01T07:31:43.872Z,37.26
2023-05-01T07:34:10.556Z,36.05
2023-05-01T07:36:37.564Z,35.93
2023-05-01T07:39:04.329Z,37.12
2023-05-01T07:41:31.505Z,38.19
2023-05-01T07:44:01.179Z,38.87
2023-05-01T07:46:28.252Z,39.24
2023-05-01T07:48:54.928Z,38.49
2023-05-01T07:51:21.665Z,37.32
2023-05-01T07:53:48.731Z,36.88
2023-05-01T07:56:15.250Z,36.96
2023-05-01T07:58:42.621Z,37.53
2023-05-01T08:01:09.732Z,35.81
2023-05-01T08:03:36.600Z,33.15
2023-05-01T08:06:03.404Z,34.53
2023-05-01T08:08:29.927Z,34.83
2023-05-01T08:10:56.543Z,32.88
2023-05-01T08:13:23.279Z,34.20
2023-05-01T08:15:50.035Z,32.27
2023-05-01T08:18:20.503Z,32.27
2023-05-01T08:20:48.435Z,31.89
2023-05-01T08:23:18.550Z,32.90
2023-05-01T08:25:50.936Z,32.40
2023-05-01T08:28:18.311Z,31.85
2023-05-01T08:30:44.821Z,29.76
2023-05-01T08:33:11.443Z,29.78
2023-05-01T08:35:38.322Z,30.19
2023-05-01T08:38:04.866Z,29.77
2023-05-01T08:40:38.112Z,30.00
2023-05-01T08:43:05.027Z,30.70
2023-05-01T08:45:37.565Z,30.91
2023-05-01T08:48:07.765Z,31.04
2023-05-01T08:50:36.530Z,29.82
2023-05-01T08:53:04.221Z,30.34
2023-05-01T08:55:32.178Z,30.83
2023-05-01T08:57:59.853Z,29.83
2023-05-01T09:00:29.071Z,30.94
2023-05-01T09:02:56.290Z,30.32
2023-05-01T09:05:22.748Z,31.77
2023-05-01T09:07:49.463Z,30.21
2023-05-01T09:10:18.415Z,31.48
2023-05-01T09:12:47.601Z,29.67
2023-05-01T09:15:14.299Z,30.05
2023-05-01T09:17:42.433Z,31.30
2023-05-01T09:20:09.969Z,29.69
2023-05-01T09:22:36.857Z,29.36
2023-05-01T09:25:04.142Z,30.10
2023-05-01T09:27:35.422Z,27.71
2023-05-01T09:30:02.119Z,28.63
2023-05-01T09:32:28.858Z,27.25
2023-05-01T09:34:56.830Z,28.73
2023-05-01T09:37:28.556Z,28.48
2023-05-01T09:40:27.220Z,28.07
2023-05-01T09:42:56.475Z,27.96
2023-05-01T09:45:23.592Z,28.11
2023-05-01T09:47:50.488Z,27.26
2023-05-01T09:50:34.285Z,26.74
2023-05-01T09:53:01.959Z,27.98
2023-05-01T09:55:28.423Z,28.40
2023-05-01T09:57:54.862Z,28.30
2023-05-01T10:00:22.316Z,28.13
2023-05-01T10:02:49.959Z,26.08
2023-05-01T10:05:17.110Z,27.16
2023-05-01T10:08:01.059Z,27.45
2023-05-01T10:10:28.265Z,28.01
2023-05-01T10:12:55.227Z,28.03
2023-05-01T10:15:26.782Z,26.93
2023-05-01T10:17:54.589Z,27.32
2023-05-01T10:20:22.505Z,29.11
2023-05-01T10:22:49.848Z,28.00
2023-05-01T10:25:17.739Z,26.19
2023-05-01T10:27:44.413Z,25.98
2023-05-01T10:30:11.397Z,26.75
2023-05-01T10:32:38.777Z,27.80
2023-05-01T10:35:14.498Z,27.58
2023-05-01T10:37:47.538Z,27.30
2023-05-01T10:40:39.135Z,27.11
2023-05-01T10:43:26.152Z,26.50
2023-05-01T10:45:53.282Z,26.14
2023-05-01T10:48:38.588Z,28.20
2023-05-01T10:51:27.467Z,25.84
2023-05-01T10:54:13.392Z,24.73
2023-05-01T10:56:43.025Z,27.09
2023-05-01T10:59:09.723Z,28.18
2023-05-01T11:01:40.865Z,28.02
2023-05-01T11:04:27.910Z,28.82
2023-05-01T11:07:08.373Z,28.55
2023-05-01T11:09:46.934Z,27.49
2023-05-01T11:12:14.133Z,28.25
2023-05-01T11:15:03.628Z,29.72
2023-05-01T11:17:42.969Z,29.01
2023-05-01T11:20:11.095Z,28.54
2023-05-01T11:22:42.777Z,28.53
2023-05-01T11:25:20.648Z,28.33
2023-05-01T11:27:52.283Z,27.83
2023-05-01T11:30:19.046Z,27.77
2023-05-01T11:32:48.717Z,27.35
2023-05-01T11:35:20.876Z,24.84
2023-05-01T11:37:48.492Z,26.11
2023-05-01T11:40:27.032Z,25.96
2023-05-01T11:43:07.201Z,26.18
2023-05-01T11:45:36.620Z,27.69
2023-05-01T11:48:04.851Z,26.41
2023-05-01T11:50:36.316Z,26.95
2023-05-01T11:53:04.248Z,27.41
2023-05-01T11:55:34.495Z,29.72
2023-05-01T11:58:01.968Z,28.51
2023-05-01T12:00:30.120Z,27.69
2023-05-01T12:02:58.910Z,28.78
2023-05-01T12:05:26.815Z,28.15
2023-05-01T12:08:23.814Z,28.98
2023-05-01T12:10:58.889Z,30.32
2023-05-01T12:13:26.939Z,27.87
2023-05-01T12:15:54.736Z,27.16
2023-05-01T12:18:21.916Z,26.97
2023-05-01T12:20:54.284Z,27.57
2023-05-01T12:23:31.868Z,27.54
2023-05-01T12:25:58.581Z,27.03
2023-05-01T12:28:27.518Z,27.60
2023-05-01T12:30:57.813Z,26.43
2023-05-01T12:33:24.385Z,27.53
2023-05-01T12:35:51.418Z,26.01
2023-05-01T12:38:19.872Z,27.51
2023-05-01T12:40:57.651Z,27.40
2023-05-01T12:43:32.405Z,26.07
2023-05-01T12:45:59.843Z,26.67
2023-05-01T12:48:26.724Z,26.92
2023-05-01T12:50:57.002Z,28.08
2023-05-01T12:53:26.439Z,27.81
2023-05-01T12:55:59.478Z,28.61
2023-05-01T12:58:36.944Z,27.12
2023-05-01T13:01:03.513Z,28.81
2023-05-01T13:03:30.581Z,28.54
2023-05-01T13:05:59.401Z,25.98
2023-05-01T13:08:36.138Z,27.13
2023-05-01T13:11:13.622Z,27.35
2023-05-01T13:13:40.841Z,28.72
2023-05-01T13:16:12.841Z,28.12
2023-05-01T13:18:51.356Z,28.52
2023-05-01T13:21:22.364Z,28.70
2023-05-01T13:23:59.774Z,27.89
2023-05-01T13:26:31.386Z,26.74
2023-05-01T13:28:58.719Z,27.66
2023-05-01T13:31:25.703Z,27.26
2023-05-01T13:33:54.228Z,27.04
2023-05-01T13:36:26.311Z,27.03
2023-05-01T13:38:56.269Z,27.28
2023-05-01T13:41:25.793Z,27.65
2023-05-01T13:43:56.419Z,28.08
2023-05-01T13:46:23.920Z,28.23
2023-05-01T13:48:50.772Z,27.00
2023-05-01T13:51:22.798Z,27.20
2023-05-01T13:53:50.246Z,27.87
2023-05-01T13:56:16.730Z,27.19
2023-05-01T13:58:43.200Z,27.10
2023-05-01T14:01:18.961Z,29.43
2023-05-01T14:03:45.890Z,27.55
2023-05-01T14:06:14.805Z,27.17
2023-05-01T14:08:41.781Z,27.40
2023-05-01T14:11:09.487Z,27.97
2023-05-01T14:13:36.340Z,27.51
2023-05-01T14:16:10.360Z,27.88
2023-05-01T14:18:44.970Z,27.78
2023-05-01T14:21:16.706Z,26.68
2023-05-01T14:23:43.250Z,27.15
2023-05-01T14:26:11.513Z,27.24
2023-05-01T14:28:43.520Z,25.05
2023-05-01T14:31:15.991Z,26.09
2023-05-01T14:33:45.822Z,26.40
2023-05-01T14:36:13.367Z,28.02
2023-05-01T14:38:40.622Z,27.46
2023-05-01T14:41:08.913Z,27.29
2023-05-01T14:43:41.018Z,28.08
2023-05-01T14:46:07.539Z,28.10
2023-05-01T14:48:41.321Z,28.64
2023-05-01T14:51:12.596Z,28.26
2023-05-01T14:53:41.930Z,28.08
2023-05-01T14:56:08.739Z,29.38
2023-05-01T14:58:35.586Z,28.29
2023-05-01T15:01:04.911Z,29.02
2023-05-01T15:03:32.873Z,28.89
2023-05-01T15:05:59.671Z,28.99
2023-05-01T15:08:26.249Z,30.20
2023-05-01T15:10:52.990Z,30.79
2023-05-01T15:13:19.828Z,31.51
2023-05-01T15:15:46.308Z,31.23
2023-05-01T15:18:12.820Z,32.14
2023-05-01T15:20:39.393Z,31.98
2023-05-01T15:23:05.892Z,31.69
2023-05-01T15:25:32.564Z,32.30
2023-05-01T15:27:58.964Z,32.04
2023-05-01T15:30:25.909Z,32.13
2023-05-01T15:32:55.480Z,32.04
2023-05-01T15:35:23.600Z,32.44
2023-05-01T15:37:50.583Z,32.50
2023-05-01T15:40:17.189Z,32.52
2023-05-01T15:42:45.490Z,32.53
2023-05-01T15:45:11.886Z,32.25
2023-05-01T15:47:38.441Z,33.69
2023-05-01T15:50:09.362Z,33.32
2023-05-01T15:52:35.891Z,32.25
2023-05-01T15:55:02.356Z,33.39
2023-05-01T15:57:29.771Z,33.12
2023-05-01T15:59:56.676Z,33.35
2023-05-01T16:02:23.278Z,33.25
2023-05-01T16:04:49.775Z,33.26
2023-05-01T16:07:16.317Z,33.70
2023-05-01T16:09:42.937Z,33.27
2023-05-01T16:12:09.406Z,34.12
2023-05-01T16:14:39.373Z,34.07
2023-05-01T16:17:06.595Z,34.06
2023-05-01T16:19:33.095Z,34.42
2023-05-01T16:22:03.487Z,34.42
2023-05-01T16:24:34.403Z,34.67
2023-05-01T16:27:00.977Z,35.35
2023-05-01T16:29:27.865Z,34.85
2023-05-01T16:31:54.424Z,35.00
2023-05-01T16:34:25.406Z,35.60
2023-05-01T16:36:52.080Z,35.07
2023-05-01T16:39:21.520Z,35.08
2023-05-01T16:41:50.404Z,36.16
2023-05-01T16:44:18.846Z,35.20
2023-05-01T16:47:03.468Z,35.86
2023-05-01T16:49:30.105Z,35.80
2023-05-01T16:51:57.400Z,36.01
2023-05-01T16:54:25.209Z,36.28
2023-05-01T16:56:51.832Z,35.63
2023-05-01T16:59:18.622Z,36.60
2023-05-01T17:01:45.459Z,36.27
2023-05-01T17:04:13.238Z,36.52
2023-05-01T17:06:39.832Z,36.44
2023-05-01T17:09:06.431Z,36.13
2023-05-01T17:11:32.916Z,36.79
2023-05-01T17:13:59.445Z,36.79
2023-05-01T17:16:26.123Z,36.88
2023-05-01T17:18:52.921Z,37.57
2023-05-01T17:21:19.544Z,37.32
2023-05-01T17:23:46.113Z,38.95
2023-05-01T17:26:15.898Z,37.45
2023-05-01T17:28:44.765Z,38.56
2023-05-01T17:31:11.408Z,39.62
2023-05-01T17:33:38.092Z,39.40
2023-05-01T17:36:08.851Z,40.15
2023-05-01T17:38:40.070Z,40.06
2023-05-01T17:41:07.076Z,38.47
2023-05-01T17:43:33.767Z,40.31
2023-05-01T17:46:04.906Z,40.02
2023-05-01T17:48:31.469Z,41.74
2023-05-01T17:50:58.082Z,43.16
2023-05-01T17:53:25.336Z,42.79
2023-05-01T17:55:54.711Z,43.25
2023-05-01T17:58:21.933Z,43.67
2023-05-01T18:00:49.080Z,44.38
2023-05-01T18:03:15.888Z,43.96
2023-05-01T18:05:42.716Z,44.60
2023-05-01T18:08:10.911Z,44.16
2023-05-01T18:10:41.233Z,44.23
2023-05-01T18:13:07.844Z,45.60
2023-05-01T18:15:34.647Z,44.67
2023-05-01T18:18:01.651Z,45.09
2023-05-01T18:20:29.396Z,45.64
2023-05-01T18:22:56.308Z,45.71
2023-05-01T18:25:23.153Z,46.19
2023-05-01T18:27:49.714Z,47.06
2023-05-01T18:30:19.044Z,47.43
2023-05-01T18:32:49.269Z,47.31
2023-05-01T18:35:17.285Z,47.53
2023-05-01T18:37:44.349Z,47.46
2023-05-01T18:40:11.591Z,47.56
2023-05-01T18:42:41.063Z,47.95
2023-05-01T18:45:08.345Z,47.91
2023-05-01T18:47:34.829Z,47.86
2023-05-01T18:50:01.843Z,47.90
2023-05-01T18:52:29.829Z,47.51
2023-05-01T18:54:56.387Z,48.24
2023-05-01T18:57:22.939Z,48.28
2023-05-01T18:59:49.781Z,48.63
2023-05-01T19:02:16.539Z,49.65
2023-05-01T19:04:56.619Z,48.42
2023-05-01T19:07:28.192Z,48.87
2023-05-01T19:09:55.791Z,48.61
2023-05-01T19:12:22.991Z,48.82
2023-05-01T19:14:49.475Z,48.66
2023-05-01T19:17:15.921Z,48.61
2023-05-01T19:19:42.865Z,49.42
2023-05-01T19:22:09.322Z,49.43
2023-05-01T19:24:36.276Z,49.30
2023-05-01T19:27:03.813Z,50.33
2023-05-01T19:29:31.748Z,50.97
2023-05-01T19:32:03.397Z,50.41
2023-05-01T19:34:30.052Z,49.50
2023-05-01T19:36:56.832Z,49.09
2023-05-01T19:39:23.913Z,50.08
2023-05-01T19:41:50.696Z,50.02
2023-05-01T19:44:17.507Z,49.79
2023-05-01T19:46:44.372Z,49.99
2023-05-01T19:49:10.926Z,49.72
2023-05-01T19:51:37.391Z,49.81
2023-05-01T19:54:04.761Z,50.70
2023-05-01T19:56:31.673Z,50.01
2023-05-01T19:58:58.550Z,50.30
2023-05-01T20:01:25.164Z,52.06
2023-05-01T20:03:51.718Z,50.91
2023-05-01T20:06:18.195Z,50.09
2023-05-01T20:08:44.658Z,50.21
2023-05-01T20:11:11.289Z,49.53
2023-05-01T20:13:37.787Z,50.03
2023-05-01T20:16:04.526Z,50.96
2023-05-01T20:18:31.095Z,52.08
2023-05-01T20:20:57.899Z,53.03
2023-05-01T20:23:24.794Z,55.04
2023-05-01T20:25:55.008Z,55.21
2023-05-01T20:28:22.074Z,57.10
2023-05-01T20:30:48.770Z,56.99
2023-05-01T20:33:17.065Z,57.35
2023-05-01T20:35:43.805Z,58.86
2023-05-01T20:38:10.233Z,60.15
2023-05-01T20:40:40.738Z,62.99
2023-05-01T20:43:07.311Z,62.52
2023-05-01T20:45:33.886Z,62.86
2023-05-01T20:48:00.825Z,63.41
2023-05-01T20:50:27.702Z,64.23
2023-05-01T20:52:55.131Z,65.98
2023-05-01T20:55:22.846Z,66.02
2023-05-01T20:57:49.344Z,64.87
2023-05-01T21:00:15.887Z,68.39
2023-05-01T21:02:42.662Z,68.10
2023-05-01T21:05:10.261Z,71.78
2023-05-01T21:07:38.072Z,69.92
2023-05-01T21:10:10.120Z,70.51
2023-05-01T21:12:37.347Z,70.70
2023-05-01T21:15:04.317Z,67.67
2023-05-01T21:17:35.911Z,65.18
2023-05-01T21:20:05.599Z,65.24
2023-05-01T21:22:32.094Z,64.35
2023-05-01T21:25:00.238Z,64.45
2023-05-01T21:27:27.315Z,65.14
2023-05-01T21:29:59.131Z,65.00
2023-05-01T21:32:33.730Z,67.06
2023-05-01T21:35:00.681Z,66.17
2023-05-01T21:37:27.682Z,65.11
2023-05-01T21:39:54.242Z,64.06
2023-05-01T21:42:21.040Z,65.85
2023-05-01T21:44:47.472Z,66.11
2023-05-01T21:47:15.457Z,64.94
2023-05-01T21:49:41.963Z,64.25
2023-05-01T21:52:08.833Z,64.45
2023-05-01T21:54:38.518Z,63.74
2023-05-01T21:57:07.564Z,64.16
2023-05-01T21:59:36.379Z,63.93
2023-05-01T22:02:12.167Z,64.24
2023-05-01T22:04:38.750Z,63.46
2023-05-01T22:07:05.826Z,64.11
2023-05-01T22:09:33.311Z,63.96
2023-05-01T22:11:59.731Z,64.81
2023-05-01T22:14:33.626Z,64.48
2023-05-01T22:17:06.585Z,65.16
2023-05-01T22:19:33.068Z,64.95
2023-05-01T22:21:59.563Z,66.10
2023-05-01T22:24:26.056Z,66.78
2023-05-01T22:26:52.564Z,66.07
2023-05-01T22:29:19.010Z,65.49
2023-05-01T22:31:46.537Z,65.98
2023-05-01T22:34:13.321Z,66.26
2023-05-01T22:36:39.768Z,68.02
2023-05-01T22:39:06.306Z,67.31
2023-05-01T22:41:33.186Z,67.31
2023-05-01T22:44:00.842Z,68.73
2023-05-01T22:46:28.933Z,68.72
2023-05-01T22:48:55.535Z,68.71
2023-05-01T22:51:22.145Z,69.11
2023-05-01T22:53:48.533Z,69.42
2023-05-01T22:56:15.259Z,70.48
2023-05-01T22:58:42.677Z,70.45
2023-05-01T23:01:09.260Z,70.72
2023-05-01T23:03:38.635Z,71.36
2023-05-01T23:06:06.421Z,72.33
2023-05-01T23:08:34.051Z,72.17
2023-05-01T23:11:00.546Z,70.92
2023-05-01T23:13:28.215Z,69.50
2023-05-01T23:15:54.745Z,69.87
2023-05-01T23:18:30.665Z,69.59
2023-05-01T23:20:57.418Z,70.51
2023-05-01T23:23:29.379Z,70.19
2023-05-01T23:25:56.569Z,71.98
2023-05-01T23:28:25.022Z,70.67
2023-05-01T23:31:18.673Z,71.11
2023-05-01T23:33:45.341Z,72.04
2023-05-01T23:36:13.021Z,71.45
2023-05-01T23:38:40.364Z,72.31
2023-05-01T23:41:07.950Z,71.57
2023-05-01T23:43:38.606Z,71.66
2023-05-01T23:46:06.576Z,72.02
2023-05-01T23:48:36.292Z,71.70
2023-05-01T23:51:02.950Z,71.79
2023-05-01T23:53:29.575Z,72.18
2023-05-01T23:55:56.353Z,72.92
2023-05-01T23:58:23.460Z,73.10
